Time;durP1;ratioP1;P1;durP2;ratioP2;P2;SDS_P1;SDS_P2;PMS_P1;PMS_P2;Temp;Humidity;BMP_temperature;BMP_pressure;BME280_temperature;BME280_humidity;BME280_pressure;Samples;Min_cycle;Max_cycle;Signal;HPM_P1;HPM_P2
2021/10/18 00:00:05;;;;;;;5.75;4.28;;;;;;;;;;5133248;27;20019;-46
2021/10/18 00:02:31;;;;;;;4.80;3.70;;;;;;;;;;5133371;27;20059;-45
2021/10/18 00:04:57;;;;;;;6.43;4.35;;;;;;;;;;5132902;27;20023;-46
2021/10/18 00:07:23;;;;;;;6.00;4.28;;;;;;;;;;5112797;28;20024;-46
2021/10/18 00:09:49;;;;;;;5.72;4.18;;;;;;;;;;5112664;28;20043;-49
2021/10/18 00:12:15;;;;;;;4.60;3.63;;;;;;;;;;5119821;27;20087;-45
2021/10/18 00:14:41;;;;;;;8.55;4.40;;;;;;;;;;5132728;27;20027;-45
2021/10/18 00:17:07;;;;;;;5.60;3.70;;;;;;;;;;5116103;27;20465;-45
2021/10/18 00:19:33;;;;;;;5.53;3.78;;;;;;;;;;5114587;28;20020;-45
2021/10/18 00:21:59;;;;;;;6.18;3.97;;;;;;;;;;5133268;28;20460;-45
2021/10/18 00:24:25;;;;;;;5.28;3.65;;;;;;;;;;5131092;28;20051;-45
2021/10/18 00:26:51;;;;;;;5.72;3.50;;;;;;;;;;5118213;28;20031;-46
2021/10/18 00:29:18;;;;;;;5.68;3.60;;;;;;;;;;5111380;28;20075;-45
2021/10/18 00:31:44;;;;;;;4.55;3.20;;;;;;;;;;5112510;28;20024;-45
2021/10/18 00:34:10;;;;;;;4.30;3.13;;;;;;;;;;5112805;28;20046;-46
2021/10/18 00:36:36;;;;;;;6.28;4.25;;;;;;;;;;5126164;27;20047;-45
2021/10/18 00:39:02;;;;;;;5.65;3.67;;;;;;;;;;5134346;27;20015;-46
2021/10/18 00:41:28;;;;;;;4.97;3.30;;;;;;;;;;5115658;28;20031;-46
2021/10/18 00:43:55;;;;;;;5.85;4.07;;;;;;;;;;5116070;27;20015;-46
2021/10/18 00:46:23;;;;;;;5.18;3.63;;;;;;;;;;5115491;28;20015;-46
2021/10/18 00:48:49;;;;;;;4.80;3.80;;;;;;;;;;5116181;28;20062;-46
2021/10/18 00:51:16;;;;;;;4.80;3.75;;;;;;;;;;5135033;27;20031;-46
2021/10/18 00:53:43;;;;;;;4.88;3.67;;;;;;;;;;5136055;27;20026;-45
2021/10/18 00:56:09;;;;;;;5.78;3.03;;;;;;;;;;5136666;27;20015;-47
2021/10/18 00:58:35;;;;;;;5.03;3.22;;;;;;;;;;5135429;27;20042;-46
2021/10/18 01:01:01;;;;;;;5.65;3.22;;;;;;;;;;5119412;27;20019;-48
2021/10/18 01:03:27;;;;;;;4.55;3.33;;;;;;;;;;5119826;27;20475;-48
2021/10/18 01:05:53;;;;;;;4.63;3.50;;;;;;;;;;5136595;27;20026;-46
2021/10/18 01:08:19;;;;;;;4.75;3.38;;;;;;;;;;5122563;27;20032;-47
2021/10/18 01:10:45;;;;;;;4.78;3.50;;;;;;;;;;5130410;27;20100;-46
2021/10/18 01:13:11;;;;;;;5.35;3.58;;;;;;;;;;5135597;27;20420;-46
2021/10/18 01:15:38;;;;;;;3.90;3.00;;;;;;;;;;5135532;27;20695;-46
2021/10/18 01:18:04;;;;;;;4.63;3.88;;;;;;;;;;5136046;27;20019;-46
2021/10/18 01:20:31;;;;;;;4.43;2.83;;;;;;;;;;5133427;27;20029;-46
2021/10/18 01:22:58;;;;;;;5.40;3.65;;;;;;;;;;5136117;27;20053;-46
2021/10/18 01:25:24;;;;;;;4.80;3.38;;;;;;;;;;5114768;27;20372;-47
2021/10/18 01:27:50;;;;;;;4.80;3.40;;;;;;;;;;5115640;28;20475;-48
2021/10/18 01:30:16;;;;;;;4.63;3.45;;;;;;;;;;5125356;27;20027;-46
2021/10/18 01:32:43;;;;;;;5.18;3.47;;;;;;;;;;5135267;27;20106;-46
2021/10/18 01:35:09;;;;;;;4.82;3.22;;;;;;;;;;5132600;27;20051;-46
2021/10/18 01:37:35;;;;;;;5.25;3.50;;;;;;;;;;5114886;28;20026;-46
2021/10/18 01:40:01;;;;;;;4.68;3.35;;;;;;;;;;5122923;27;20069;-46
2021/10/18 01:42:27;;;;;;;3.80;2.80;;;;;;;;;;5134849;27;20098;-46
2021/10/18 01:44:53;;;;;;;4.97;3.20;;;;;;;;;;5135306;27;20046;-46
2021/10/18 01:47:19;;;;;;;4.22;3.30;;;;;;;;;;5135202;27;20019;-46
2021/10/18 01:49:45;;;;;;;4.80;3.35;;;;;;;;;;5127462;27;20023;-46
2021/10/18 01:52:11;;;;;;;4.05;2.90;;;;;;;;;;5115097;28;20019;-46
2021/10/18 01:54:37;;;;;;;4.05;2.65;;;;;;;;;;5114075;28;20038;-46
2021/10/18 01:57:03;;;;;;;4.15;3.15;;;;;;;;;;5114993;28;20013;-46
2021/10/18 01:59:29;;;;;;;3.95;3.25;;;;;;;;;;5119197;27;20054;-46
2021/10/18 02:01:55;;;;;;;3.90;2.80;;;;;;;;;;5133009;27;20047;-46
2021/10/18 02:04:21;;;;;;;3.65;2.80;;;;;;;;;;5113932;28;20103;-47
2021/10/18 02:06:47;;;;;;;4.57;2.80;;;;;;;;;;5116529;27;20464;-46
2021/10/18 02:09:13;;;;;;;4.47;3.08;;;;;;;;;;5132028;27;20035;-47
2021/10/18 02:11:39;;;;;;;3.95;2.92;;;;;;;;;;5113823;28;20055;-46
2021/10/18 02:14:05;;;;;;;3.78;2.72;;;;;;;;;;5114738;28;20105;-49
2021/10/18 02:16:31;;;;;;;5.15;3.15;;;;;;;;;;5113571;28;20452;-48
2021/10/18 02:18:57;;;;;;;3.88;3.05;;;;;;;;;;5114447;28;20028;-46
2021/10/18 02:21:23;;;;;;;4.03;3.47;;;;;;;;;;5114991;27;20020;-47
2021/10/18 02:23:49;;;;;;;3.80;2.78;;;;;;;;;;5114798;28;20102;-46
2021/10/18 02:26:15;;;;;;;4.28;3.45;;;;;;;;;;5114240;28;20067;-49
2021/10/18 02:28:41;;;;;;;3.05;2.38;;;;;;;;;;5114669;27;20106;-46
2021/10/18 02:31:07;;;;;;;4.07;2.97;;;;;;;;;;5131740;27;20028;-50
2021/10/18 02:33:33;;;;;;;3.40;2.55;;;;;;;;;;5134069;27;20023;-46
2021/10/18 02:35:59;;;;;;;3.95;2.90;;;;;;;;;;5134244;27;20071;-48
2021/10/18 02:38:25;;;;;;;4.18;2.70;;;;;;;;;;5133923;27;20096;-46
2021/10/18 02:40:51;;;;;;;3.33;2.38;;;;;;;;;;5118469;27;20089;-48
2021/10/18 02:43:17;;;;;;;5.10;3.67;;;;;;;;;;5113879;28;20012;-46
2021/10/18 02:45:43;;;;;;;3.60;2.70;;;;;;;;;;5112924;28;20042;-48
2021/10/18 02:48:10;;;;;;;3.50;2.42;;;;;;;;;;5114002;28;20015;-48
2021/10/18 02:50:36;;;;;;;4.13;3.00;;;;;;;;;;5125682;27;20035;-47
2021/10/18 02:53:02;;;;;;;3.03;2.72;;;;;;;;;;5133809;27;20019;-47
2021/10/18 02:55:28;;;;;;;3.53;2.65;;;;;;;;;;5132674;27;20050;-48
2021/10/18 02:57:54;;;;;;;3.42;2.78;;;;;;;;;;5113122;28;20055;-47
2021/10/18 03:00:20;;;;;;;3.53;2.72;;;;;;;;;;5113999;27;20068;-47
2021/10/18 03:02:46;;;;;;;3.05;2.33;;;;;;;;;;5113048;28;20077;-46
2021/10/18 03:05:12;;;;;;;3.42;2.55;;;;;;;;;;5113882;28;20019;-45
2021/10/18 03:07:38;;;;;;;3.67;2.90;;;;;;;;;;5112660;28;20153;-46
2021/10/18 03:10:05;;;;;;;3.50;2.70;;;;;;;;;;5125683;27;20027;-48
2021/10/18 03:12:31;;;;;;;3.30;2.70;;;;;;;;;;5114837;27;20055;-47
2021/10/18 03:14:59;;;;;;;3.75;2.67;;;;;;;;;;5133865;27;20035;-46
2021/10/18 03:17:25;;;;;;;3.78;2.80;;;;;;;;;;5133106;27;20023;-46
2021/10/18 03:19:51;;;;;;;3.35;2.70;;;;;;;;;;5128679;27;20030;-46
2021/10/18 03:22:17;;;;;;;3.95;2.88;;;;;;;;;;5133532;27;20011;-50
2021/10/18 03:24:43;;;;;;;3.67;2.75;;;;;;;;;;5133142;27;20022;-46
2021/10/18 03:27:09;;;;;;;3.30;2.50;;;;;;;;;;5133588;27;20031;-46
2021/10/18 03:29:35;;;;;;;3.30;2.53;;;;;;;;;;5131892;27;20041;-46
2021/10/18 03:32:01;;;;;;;4.15;2.95;;;;;;;;;;5133573;27;20027;-46
2021/10/18 03:34:27;;;;;;;4.25;2.90;;;;;;;;;;5132658;27;20023;-46
2021/10/18 03:36:53;;;;;;;3.40;2.28;;;;;;;;;;5133803;27;20019;-48
2021/10/18 03:39:19;;;;;;;2.83;2.42;;;;;;;;;;5127983;27;20031;-46
2021/10/18 03:41:45;;;;;;;3.60;2.72;;;;;;;;;;5111718;28;20078;-46
2021/10/18 03:44:11;;;;;;;3.97;2.45;;;;;;;;;;5094829;28;20015;-46
2021/10/18 03:46:37;;;;;;;3.83;2.63;;;;;;;;;;5111780;28;20022;-45
2021/10/18 03:49:04;;;;;;;3.10;2.25;;;;;;;;;;5132171;27;20012;-46
2021/10/18 03:51:30;;;;;;;5.88;3.17;;;;;;;;;;5132581;27;20106;-47
2021/10/18 03:53:56;;;;;;;3.05;2.60;;;;;;;;;;5133241;27;20027;-47
2021/10/18 03:56:22;;;;;;;3.05;2.35;;;;;;;;;;5132663;27;20015;-45
2021/10/18 03:58:47;;;;;;;3.05;2.40;;;;;;;;;;5132147;27;20112;-46
2021/10/18 04:01:13;;;;;;;4.10;2.72;;;;;;;;;;5128049;27;20048;-46
2021/10/18 04:03:39;;;;;;;4.75;2.53;;;;;;;;;;5132291;27;20444;-46
2021/10/18 04:06:05;;;;;;;3.50;2.45;;;;;;;;;;5132720;27;20023;-45
2021/10/18 04:08:32;;;;;;;3.42;2.60;;;;;;;;;;5131261;27;20447;-45
2021/10/18 04:10:59;;;;;;;2.92;2.63;;;;;;;;;;5130023;27;20031;-46
2021/10/18 04:13:25;;;;;;;3.58;2.50;;;;;;;;;;5111682;28;20069;-46
2021/10/18 04:15:51;;;;;;;3.03;2.33;;;;;;;;;;5122235;27;20460;-47
2021/10/18 04:18:18;;;;;;;3.63;2.67;;;;;;;;;;5133249;27;20028;-46
2021/10/18 04:20:45;;;;;;;2.80;2.30;;;;;;;;;;5128414;28;20023;-46
2021/10/18 04:23:11;;;;;;;3.33;2.58;;;;;;;;;;5132982;28;20023;-46
2021/10/18 04:25:37;;;;;;;3.45;2.70;;;;;;;;;;5132260;28;20088;-46
2021/10/18 04:28:03;;;;;;;4.45;2.75;;;;;;;;;;5132622;28;20015;-46
2021/10/18 04:30:29;;;;;;;3.30;2.38;;;;;;;;;;5130966;28;20037;-48
2021/10/18 04:32:56;;;;;;;3.08;2.38;;;;;;;;;;5132798;28;20467;-46
2021/10/18 04:35:22;;;;;;;4.28;3.15;;;;;;;;;;5132217;28;20043;-46
2021/10/18 04:37:48;;;;;;;3.35;2.53;;;;;;;;;;5132247;28;20056;-47
2021/10/18 04:40:14;;;;;;;4.38;3.00;;;;;;;;;;5119393;28;20027;-46
2021/10/18 04:42:40;;;;;;;4.15;2.92;;;;;;;;;;5111302;28;20024;-47
2021/10/18 04:45:07;;;;;;;3.80;2.97;;;;;;;;;;5132120;28;20360;-46
2021/10/18 04:47:33;;;;;;;3.78;2.92;;;;;;;;;;5131945;28;20057;-46
2021/10/18 04:49:59;;;;;;;5.30;3.50;;;;;;;;;;5121648;28;20368;-50
2021/10/18 04:52:25;;;;;;;4.45;3.08;;;;;;;;;;5111696;28;20024;-47
2021/10/18 04:54:51;;;;;;;3.35;2.55;;;;;;;;;;5112254;28;20012;-46
2021/10/18 04:57:17;;;;;;;4.10;3.40;;;;;;;;;;5112116;28;20518;-46
2021/10/18 04:59:43;;;;;;;5.68;2.95;;;;;;;;;;5118931;28;20031;-46
2021/10/18 05:02:09;;;;;;;4.80;2.70;;;;;;;;;;5131892;28;20035;-46
2021/10/18 05:04:35;;;;;;;3.90;3.20;;;;;;;;;;5131372;28;20027;-46
2021/10/18 05:07:01;;;;;;;3.85;2.60;;;;;;;;;;5131964;28;20050;-50
2021/10/18 05:09:27;;;;;;;5.43;2.92;;;;;;;;;;5125702;28;20019;-47
2021/10/18 05:11:53;;;;;;;3.75;2.63;;;;;;;;;;5111966;28;20019;-48
2021/10/18 05:14:19;;;;;;;5.10;2.92;;;;;;;;;;5111474;28;20080;-49
2021/10/18 05:16:46;;;;;;;6.47;2.72;;;;;;;;;;5111371;28;20030;-47
2021/10/18 05:19:12;;;;;;;4.82;3.55;;;;;;;;;;5116188;28;20019;-48
2021/10/18 05:21:38;;;;;;;5.75;2.92;;;;;;;;;;5114069;28;20031;-46
2021/10/18 05:24:05;;;;;;;13.63;8.07;;;;;;;;;;5115878;28;20028;-47
2021/10/18 05:26:31;;;;;;;16.48;10.23;;;;;;;;;;5114469;28;20502;-46
2021/10/18 05:28:57;;;;;;;15.85;9.23;;;;;;;;;;5117318;27;20070;-48
2021/10/18 05:31:23;;;;;;;19.83;11.10;;;;;;;;;;5136095;27;20069;-49
2021/10/18 05:33:49;;;;;;;15.38;9.55;;;;;;;;;;5135201;27;20067;-47
2021/10/18 05:36:15;;;;;;;14.07;6.22;;;;;;;;;;5136022;27;20118;-46
2021/10/18 05:38:41;;;;;;;11.50;5.40;;;;;;;;;;5119086;27;20027;-48
2021/10/18 05:41:07;;;;;;;15.65;5.57;;;;;;;;;;5115906;27;20054;-49
2021/10/18 05:43:33;;;;;;;11.60;5.32;;;;;;;;;;5114100;28;20067;-46
2021/10/18 05:45:59;;;;;;;18.90;5.15;;;;;;;;;;5115179;28;20422;-45
2021/10/18 05:48:25;;;;;;;14.57;4.90;;;;;;;;;;5114650;28;20015;-44
2021/10/18 05:50:51;;;;;;;7.50;4.63;;;;;;;;;;5132928;27;20067;-46
2021/10/18 05:53:17;;;;;;;12.70;5.00;;;;;;;;;;5135604;27;20048;-46
2021/10/18 05:55:44;;;;;;;12.63;5.97;;;;;;;;;;5135016;27;20425;-47
2021/10/18 05:58:11;;;;;;;11.98;4.68;;;;;;;;;;5135578;27;20041;-46
2021/10/18 06:00:39;;;;;;;9.80;4.47;;;;;;;;;;5117833;27;20028;-47
2021/10/18 06:03:05;;;;;;;9.00;3.72;;;;;;;;;;5114547;28;20066;-50
2021/10/18 06:05:31;;;;;;;7.68;3.95;;;;;;;;;;5118999;27;20023;-51
2021/10/18 06:08:04;;;;;;;7.05;4.03;;;;;;;;;;5113654;27;20029;-48
2021/10/18 06:10:30;;;;;;;7.78;3.80;;;;;;;;;;5112560;27;20059;-49
2021/10/18 06:12:57;;;;;;;10.40;6.43;;;;;;;;;;5127442;27;20026;-47
2021/10/18 06:15:23;;;;;;;19.73;11.77;;;;;;;;;;5113727;27;20023;-47
2021/10/18 06:17:52;;;;;;;21.02;13.07;;;;;;;;;;5114336;27;20252;-47
2021/10/18 06:20:19;;;;;;;20.85;13.63;;;;;;;;;;5123071;27;20034;-46
2021/10/18 06:22:46;;;;;;;20.05;12.20;;;;;;;;;;5133768;27;20031;-48
2021/10/18 06:25:12;;;;;;;22.10;12.52;;;;;;;;;;5134681;27;20094;-47
2021/10/18 06:27:38;;;;;;;24.35;13.82;;;;;;;;;;5134208;27;20026;-47
2021/10/18 06:30:05;;;;;;;22.83;13.73;;;;;;;;;;5133783;27;20030;-47
2021/10/18 06:32:32;;;;;;;24.73;14.77;;;;;;;;;;5133035;27;20114;-46
2021/10/18 06:34:58;;;;;;;23.92;14.93;;;;;;;;;;5116398;27;20371;-49
2021/10/18 06:37:24;;;;;;;25.38;14.02;;;;;;;;;;5112900;28;20019;-46
2021/10/18 06:39:50;;;;;;;21.85;13.05;;;;;;;;;;5109072;27;20023;-47
2021/10/18 06:42:16;;;;;;;19.13;11.77;;;;;;;;;;5121565;27;20020;-47
2021/10/18 06:44:42;;;;;;;16.17;10.98;;;;;;;;;;5114970;28;20028;-48
2021/10/18 06:47:09;;;;;;;18.73;10.38;;;;;;;;;;5113897;28;20019;-47
2021/10/18 06:49:36;;;;;;;16.75;9.73;;;;;;;;;;5128013;27;20019;-51
2021/10/18 06:52:03;;;;;;;15.95;9.85;;;;;;;;;;5134416;27;20020;-46
2021/10/18 06:54:40;;;;;;;11.48;7.90;;;;;;;;;;5133996;27;20409;-45
2021/10/18 06:57:06;;;;;;;12.05;7.07;;;;;;;;;;5134587;27;20011;-47
2021/10/18 06:59:32;;;;;;;12.02;7.32;;;;;;;;;;5118739;27;20452;-46
2021/10/18 07:01:58;;;;;;;10.45;7.25;;;;;;;;;;5122288;27;20434;-47
2021/10/18 07:04:26;;;;;;;12.60;7.90;;;;;;;;;;5133781;27;20023;-47
2021/10/18 07:06:52;;;;;;;10.93;6.72;;;;;;;;;;5131667;27;20091;-46
2021/10/18 07:09:18;;;;;;;8.77;6.35;;;;;;;;;;5132017;27;20452;-46
2021/10/18 07:11:44;;;;;;;9.50;6.25;;;;;;;;;;5111760;28;20023;-47
2021/10/18 07:14:11;;;;;;;9.48;6.47;;;;;;;;;;5113897;28;20456;-48
2021/10/18 07:16:37;;;;;;;8.43;5.32;;;;;;;;;;5112815;28;20088;-49
2021/10/18 07:19:03;;;;;;;6.85;4.95;;;;;;;;;;5113698;28;20452;-47
2021/10/18 07:21:29;;;;;;;7.90;5.47;;;;;;;;;;5118192;27;20024;-47
2021/10/18 07:23:58;;;;;;;7.43;4.75;;;;;;;;;;5115440;27;20011;-46
2021/10/18 07:26:25;;;;;;;10.50;6.95;;;;;;;;;;5113515;28;20107;-47
2021/10/18 07:28:51;;;;;;;8.80;5.90;;;;;;;;;;5119610;27;20089;-48
2021/10/18 07:31:18;;;;;;;8.15;5.60;;;;;;;;;;5133718;27;20075;-47
2021/10/18 07:33:44;;;;;;;7.75;5.43;;;;;;;;;;5129500;27;20015;-46
2021/10/18 07:36:12;;;;;;;7.65;4.85;;;;;;;;;;5133456;27;20058;-46
2021/10/18 07:38:39;;;;;;;7.65;5.20;;;;;;;;;;5121492;27;20027;-47
2021/10/18 07:41:08;;;;;;;8.25;5.18;;;;;;;;;;5125404;27;20015;-47
2021/10/18 07:43:34;;;;;;;7.55;5.47;;;;;;;;;;5132048;27;20101;-47
2021/10/18 07:46:00;;;;;;;8.77;5.45;;;;;;;;;;5133328;27;20043;-46
2021/10/18 07:48:26;;;;;;;6.70;4.65;;;;;;;;;;5124753;27;20076;-46
2021/10/18 07:50:52;;;;;;;6.22;4.57;;;;;;;;;;5132657;27;20459;-48
2021/10/18 07:53:18;;;;;;;5.95;4.22;;;;;;;;;;5132918;27;20374;-46
2021/10/18 07:55:44;;;;;;;6.18;4.85;;;;;;;;;;5117289;27;20023;-47
2021/10/18 07:58:10;;;;;;;7.70;4.43;;;;;;;;;;5112587;28;20410;-46
2021/10/18 08:00:36;;;;;;;6.72;4.68;;;;;;;;;;5123839;27;20063;-46
2021/10/18 08:03:02;;;;;;;6.38;4.40;;;;;;;;;;5132534;27;20031;-46
2021/10/18 08:05:28;;;;;;;7.13;5.00;;;;;;;;;;5131425;27;20035;-46
2021/10/18 08:07:55;;;;;;;6.38;4.70;;;;;;;;;;5132470;27;20019;-46
2021/10/18 08:10:24;;;;;;;6.68;4.50;;;;;;;;;;5122066;27;20479;-46
2021/10/18 08:12:51;;;;;;;6.05;4.43;;;;;;;;;;5111851;28;20370;-46
2021/10/18 08:15:17;;;;;;;6.47;4.18;;;;;;;;;;5128444;27;20531;-47
2021/10/18 08:17:43;;;;;;;5.03;3.75;;;;;;;;;;5132073;27;20363;-46
2021/10/18 08:20:10;;;;;;;5.93;4.28;;;;;;;;;;5124876;27;20015;-46
2021/10/18 08:22:36;;;;;;;6.20;4.30;;;;;;;;;;5116206;28;20016;-48
2021/10/18 08:25:02;;;;;;;5.60;4.32;;;;;;;;;;5118702;28;20019;-46
2021/10/18 08:27:28;;;;;;;7.05;4.60;;;;;;;;;;5128348;28;20023;-46
2021/10/18 08:29:54;;;;;;;6.05;4.15;;;;;;;;;;5131955;28;20063;-46
2021/10/18 08:32:20;;;;;;;7.05;4.78;;;;;;;;;;5132757;28;20509;-46
2021/10/18 08:34:46;;;;;;;6.45;3.90;;;;;;;;;;5130728;28;20084;-47
2021/10/18 08:37:13;;;;;;;5.75;4.13;;;;;;;;;;5133063;28;20027;-46
2021/10/18 08:42:22;;;;;;;5.80;4.20;;;;;;;;;;5112190;28;20345;-48
2021/10/18 08:44:49;;;;;;;8.70;4.75;;;;;;;;;;5111558;28;20019;-46
2021/10/18 08:47:15;;;;;;;6.00;4.10;;;;;;;;;;5112114;28;20034;-46
2021/10/18 08:49:41;;;;;;;6.30;4.05;;;;;;;;;;5111306;28;20055;-46
2021/10/18 08:52:07;;;;;;;4.47;3.22;;;;;;;;;;5111308;28;20113;-47
2021/10/18 08:54:34;;;;;;;4.90;3.58;;;;;;;;;;5132329;27;20078;-46
2021/10/18 08:57:00;;;;;;;6.63;4.32;;;;;;;;;;5136026;27;20022;-49
2021/10/18 08:59:27;;;;;;;6.72;3.78;;;;;;;;;;5136663;27;20031;-47
2021/10/18 09:01:53;;;;;;;7.30;4.30;;;;;;;;;;5135796;27;20554;-46
2021/10/18 09:04:25;;;;;;;5.68;4.05;;;;;;;;;;5136249;27;20019;-51
2021/10/18 09:06:51;;;;;;;4.97;3.50;;;;;;;;;;5135632;27;20455;-46
2021/10/18 09:09:22;;;;;;;4.38;3.38;;;;;;;;;;5135142;27;20082;-47
2021/10/18 09:11:48;;;;;;;6.15;4.07;;;;;;;;;;5097520;28;20472;-48
2021/10/18 09:14:15;;;;;;;4.55;3.63;;;;;;;;;;5115837;28;20046;-49
2021/10/18 09:16:44;;;;;;;5.20;3.47;;;;;;;;;;5114523;28;20019;-46
2021/10/18 09:19:15;;;;;;;5.95;3.95;;;;;;;;;;5115786;28;20024;-46
2021/10/18 09:22:04;;;;;;;4.95;3.88;;;;;;;;;;5114785;28;20085;-47
2021/10/18 09:24:30;;;;;;;5.78;4.28;;;;;;;;;;5115817;28;20056;-49
2021/10/18 09:26:57;;;;;;;5.65;3.63;;;;;;;;;;5114763;28;20130;-46
2021/10/18 09:29:34;;;;;;;5.40;3.97;;;;;;;;;;5115227;28;20023;-47
2021/10/18 09:32:01;;;;;;;6.18;4.05;;;;;;;;;;5114992;28;20019;-46
2021/10/18 09:34:34;;;;;;;7.40;3.95;;;;;;;;;;5115373;28;20019;-46
2021/10/18 09:37:07;;;;;;;6.55;3.85;;;;;;;;;;5114322;28;20016;-46
2021/10/18 09:39:33;;;;;;;5.97;4.00;;;;;;;;;;5115065;28;20022;-46
2021/10/18 09:42:03;;;;;;;8.27;4.05;;;;;;;;;;5113944;28;20035;-46
2021/10/18 10:52:40;;;;;;;4.57;3.58;;;;;;;;;;5134408;27;20034;-46
2021/10/18 10:55:18;;;;;;;6.60;3.42;;;;;;;;;;5134317;27;20019;-46
2021/10/18 10:57:44;;;;;;;5.82;4.05;;;;;;;;;;5133630;27;20510;-46
2021/10/18 11:00:29;;;;;;;4.55;3.75;;;;;;;;;;5134546;27;20092;-50
2021/10/18 11:03:15;;;;;;;4.00;3.42;;;;;;;;;;5133795;27;20018;-46
2021/10/18 11:05:57;;;;;;;5.32;3.80;;;;;;;;;;5133209;27;20031;-48
2021/10/18 11:08:33;;;;;;;6.03;3.22;;;;;;;;;;5134324;27;20463;-46
2021/10/18 11:11:13;;;;;;;5.20;3.42;;;;;;;;;;5133622;27;20442;-48
2021/10/18 11:14:06;;;;;;;5.93;3.55;;;;;;;;;;5133587;27;20102;-45
2021/10/18 11:16:32;;;;;;;;;;;;;;;;;;5129919;27;20039;-49
2021/10/18 11:18:59;;;;;;;5.28;3.25;;;;;;;;;;5132430;27;19904;-49
2021/10/18 11:21:26;;;;;;;4.55;3.28;;;;;;;;;;5110935;27;20869;-50
2021/10/18 11:23:57;;;;;;;4.68;3.45;;;;;;;;;;5125706;27;20019;-48
2021/10/18 11:26:24;;;;;;;5.35;4.30;;;;;;;;;;5135387;27;20015;-47
2021/10/18 11:28:56;;;;;;;3.85;3.22;;;;;;;;;;5133076;27;20027;-46
2021/10/18 11:31:33;;;;;;;4.07;3.35;;;;;;;;;;5133532;27;20393;-46
2021/10/18 11:34:19;;;;;;;3.83;3.28;;;;;;;;;;5132518;27;20769;-46
2021/10/18 11:36:47;;;;;;;5.45;4.13;;;;;;;;;;5132715;27;20122;-46
2021/10/18 11:39:24;;;;;;;5.40;3.80;;;;;;;;;;5133605;27;20027;-46
2021/10/18 11:42:00;;;;;;;5.47;3.70;;;;;;;;;;5132796;27;20037;-46
2021/10/18 11:44:38;;;;;;;5.07;3.70;;;;;;;;;;5133569;27;20098;-46
2021/10/18 11:47:04;;;;;;;4.82;3.67;;;;;;;;;;5132925;27;20016;-45
2021/10/18 11:49:30;;;;;;;4.63;3.80;;;;;;;;;;5133334;27;20022;-46
2021/10/18 11:51:56;;;;;;;6.05;3.83;;;;;;;;;;5127084;27;20027;-47
2021/10/18 11:54:22;;;;;;;4.38;3.33;;;;;;;;;;5112884;28;20088;-46
2021/10/18 11:56:55;;;;;;;5.05;3.90;;;;;;;;;;5111796;28;20015;-46
2021/10/18 11:59:21;;;;;;;5.07;3.65;;;;;;;;;;5112733;28;20020;-45
2021/10/18 12:01:48;;;;;;;5.60;3.65;;;;;;;;;;5111673;28;20504;-46
2021/10/18 12:04:14;;;;;;;5.70;3.83;;;;;;;;;;5112740;28;20352;-46
2021/10/18 12:06:49;;;;;;;5.63;3.55;;;;;;;;;;5112495;28;20024;-46
2021/10/18 12:09:27;;;;;;;3.85;3.22;;;;;;;;;;5112392;28;20026;-46
2021/10/18 12:11:54;;;;;;;5.30;4.15;;;;;;;;;;5112132;28;20028;-46
2021/10/18 12:14:20;;;;;;;5.63;3.45;;;;;;;;;;5112574;28;20098;-46
2021/10/18 12:16:46;;;;;;;5.95;4.28;;;;;;;;;;5111727;28;20043;-46
2021/10/18 12:19:13;;;;;;;5.88;4.00;;;;;;;;;;5112419;28;20039;-46
2021/10/18 12:21:40;;;;;;;4.55;3.65;;;;;;;;;;5110122;28;20022;-46
2021/10/18 12:24:06;;;;;;;5.53;3.83;;;;;;;;;;5111276;28;20055;-46
2021/10/18 12:27:03;;;;;;;4.90;3.75;;;;;;;;;;5112441;28;20035;-46
2021/10/18 12:29:37;;;;;;;5.30;3.03;;;;;;;;;;5092006;28;20510;-46
2021/10/18 12:32:08;;;;;;;4.95;3.70;;;;;;;;;;5115753;28;20116;-46
2021/10/18 12:34:34;;;;;;;5.10;3.88;;;;;;;;;;5116261;28;20019;-45
2021/10/18 12:37:03;;;;;;;6.43;3.40;;;;;;;;;;5115938;28;20019;-46
2021/10/18 12:39:35;;;;;;;4.20;3.55;;;;;;;;;;5116290;28;20116;-46
2021/10/18 12:42:01;;;;;;;;;;;;;;;;;;5115985;28;20452;-46
2021/10/18 12:44:34;;;;;;;5.75;4.10;;;;;;;;;;5116451;28;19910;-47
2021/10/18 12:47:00;;;;;;;4.45;3.55;;;;;;;;;;5115872;28;20016;-46
2021/10/18 12:49:30;;;;;;;4.53;3.17;;;;;;;;;;5116077;28;20042;-47
2021/10/18 12:51:56;;;;;;;6.05;3.45;;;;;;;;;;5115263;28;20061;-46
2021/10/18 12:54:26;;;;;;;5.00;3.65;;;;;;;;;;5116052;28;20016;-46
2021/10/18 12:57:04;;;;;;;5.20;3.40;;;;;;;;;;5115238;28;20012;-49
2021/10/18 12:59:32;;;;;;;4.28;3.60;;;;;;;;;;5115863;28;20540;-48
2021/10/18 13:02:16;;;;;;;5.30;4.03;;;;;;;;;;5115432;28;20031;-46
2021/10/18 13:05:02;;;;;;;5.05;3.03;;;;;;;;;;5116269;28;20039;-46
2021/10/18 13:07:29;;;;;;;3.92;3.08;;;;;;;;;;5115847;28;20023;-51
2021/10/18 13:09:55;;;;;;;3.97;2.85;;;;;;;;;;5114884;28;20031;-47
2021/10/18 13:12:22;;;;;;;4.82;3.58;;;;;;;;;;5116005;28;20020;-49
2021/10/18 13:14:49;;;;;;;5.97;3.45;;;;;;;;;;5115018;28;20023;-46
2021/10/18 13:17:15;;;;;;;4.32;3.47;;;;;;;;;;5115857;28;20024;-46
2021/10/18 13:19:41;;;;;;;4.30;3.50;;;;;;;;;;5115209;28;20028;-46
2021/10/18 13:22:07;;;;;;;4.07;3.20;;;;;;;;;;5114803;28;20571;-47
2021/10/18 13:24:33;;;;;;;5.22;2.92;;;;;;;;;;5115501;28;20016;-46
2021/10/18 13:26:59;;;;;;;5.35;3.65;;;;;;;;;;5115098;28;20047;-46
2021/10/18 13:29:25;;;;;;;6.65;3.83;;;;;;;;;;5115325;28;20397;-46
2021/10/18 13:31:51;;;;;;;4.38;3.40;;;;;;;;;;5114732;28;20369;-46
2021/10/18 13:34:17;;;;;;;4.95;3.83;;;;;;;;;;5115180;28;20104;-46
2021/10/18 13:36:43;;;;;;;3.78;3.10;;;;;;;;;;5115139;28;20042;-46
2021/10/18 13:39:09;;;;;;;5.93;3.97;;;;;;;;;;5114457;28;20069;-46
2021/10/18 13:41:35;;;;;;;4.07;3.10;;;;;;;;;;5115166;28;20019;-46
2021/10/18 13:44:01;;;;;;;3.47;2.97;;;;;;;;;;5114459;28;20015;-46
2021/10/18 13:46:27;;;;;;;3.97;3.00;;;;;;;;;;5115375;28;20027;-45
2021/10/18 13:48:53;;;;;;;5.95;3.65;;;;;;;;;;5113934;28;20028;-47
2021/10/18 13:51:21;;;;;;;6.93;3.67;;;;;;;;;;5114707;28;20464;-46
2021/10/18 13:53:47;;;;;;;3.83;2.95;;;;;;;;;;5114396;28;20030;-47
2021/10/18 13:56:13;;;;;;;4.07;3.17;;;;;;;;;;5114489;28;20019;-45
2021/10/18 13:58:40;;;;;;;4.82;2.95;;;;;;;;;;5114942;28;20459;-46
2021/10/18 14:01:06;;;;;;;4.47;3.17;;;;;;;;;;5114230;28;20208;-47
2021/10/18 14:03:32;;;;;;;4.25;3.40;;;;;;;;;;5114718;28;20464;-46
2021/10/18 14:05:59;;;;;;;4.78;3.50;;;;;;;;;;5113948;28;20035;-46
2021/10/18 14:08:24;;;;;;;4.70;3.20;;;;;;;;;;5114889;28;20034;-45
2021/10/18 14:10:51;;;;;;;4.63;3.35;;;;;;;;;;5113868;28;20032;-47
2021/10/18 14:13:17;;;;;;;6.88;4.38;;;;;;;;;;5096447;28;20039;-46
2021/10/18 14:15:43;;;;;;;6.88;3.65;;;;;;;;;;5114656;28;20061;-46
2021/10/18 14:18:09;;;;;;;3.80;3.03;;;;;;;;;;5113615;28;20020;-46
2021/10/18 14:20:36;;;;;;;5.25;3.80;;;;;;;;;;5114645;28;20411;-46
2021/10/18 14:23:03;;;;;;;8.05;4.00;;;;;;;;;;5095616;28;20015;-46
2021/10/18 14:25:29;;;;;;;4.38;3.17;;;;;;;;;;5114735;28;20023;-46
2021/10/18 14:27:56;;;;;;;4.45;3.28;;;;;;;;;;5113676;28;20062;-45
2021/10/18 14:30:21;;;;;;;5.28;3.05;;;;;;;;;;5114485;28;20019;-46
2021/10/18 14:32:53;;;;;;;6.50;3.58;;;;;;;;;;5114073;28;20053;-47
2021/10/18 14:35:19;;;;;;;6.33;3.97;;;;;;;;;;5114427;28;20044;-46
2021/10/18 14:37:45;;;;;;;5.32;3.13;;;;;;;;;;5114051;28;20572;-46
2021/10/18 14:40:11;;;;;;;7.93;4.30;;;;;;;;;;5113419;28;20050;-46
2021/10/18 14:42:37;;;;;;;5.70;3.95;;;;;;;;;;5114193;28;20039;-46
2021/10/18 14:45:04;;;;;;;5.28;3.58;;;;;;;;;;5113255;28;20024;-46
2021/10/18 14:47:30;;;;;;;5.60;3.83;;;;;;;;;;5114308;28;20077;-46
2021/10/18 14:49:56;;;;;;;4.53;3.35;;;;;;;;;;5113258;28;20398;-46
2021/10/18 14:52:23;;;;;;;4.20;3.50;;;;;;;;;;5113658;28;20024;-47
2021/10/18 14:54:49;;;;;;;5.85;3.90;;;;;;;;;;5112907;28;20475;-47
2021/10/18 14:57:15;;;;;;;5.80;4.03;;;;;;;;;;5113157;28;20027;-47
2021/10/18 14:59:41;;;;;;;5.85;4.03;;;;;;;;;;5113902;28;20020;-48
2021/10/18 15:02:12;;;;;;;6.10;3.53;;;;;;;;;;5112918;28;20383;-47
2021/10/18 15:04:38;;;;;;;4.82;3.67;;;;;;;;;;5113772;28;20034;-47
2021/10/18 15:07:05;;;;;;;5.60;4.05;;;;;;;;;;5112787;28;20072;-46
2021/10/18 15:09:31;;;;;;;4.50;3.25;;;;;;;;;;5113471;28;20515;-47
2021/10/18 15:11:58;;;;;;;4.13;3.05;;;;;;;;;;5112638;28;20065;-48
2021/10/18 15:14:24;;;;;;;5.57;3.70;;;;;;;;;;5113615;28;20090;-45
2021/10/18 15:16:50;;;;;;;5.45;3.50;;;;;;;;;;5113166;28;20480;-45
2021/10/18 15:19:16;;;;;;;6.10;3.72;;;;;;;;;;5113268;27;20027;-46
2021/10/18 15:21:44;;;;;;;4.10;3.25;;;;;;;;;;5133934;27;20043;-46
2021/10/18 15:24:12;;;;;;;4.75;3.72;;;;;;;;;;5133167;27;20025;-45
2021/10/18 15:26:38;;;;;;;4.30;3.15;;;;;;;;;;5133702;27;20015;-46
2021/10/18 15:29:04;;;;;;;5.38;3.53;;;;;;;;;;5132978;27;20413;-45
2021/10/18 15:31:30;;;;;;;4.85;3.63;;;;;;;;;;5133797;27;20046;-45
2021/10/18 15:33:56;;;;;;;5.60;3.67;;;;;;;;;;5132853;27;20356;-47
2021/10/18 15:36:23;;;;;;;4.00;3.28;;;;;;;;;;5133898;27;20107;-47
2021/10/18 15:38:49;;;;;;;3.78;2.95;;;;;;;;;;5133640;27;20019;-49
2021/10/18 15:41:16;;;;;;;4.88;2.95;;;;;;;;;;5132801;27;20548;-47
2021/10/18 15:43:42;;;;;;;6.45;3.90;;;;;;;;;;5133350;27;20046;-46
2021/10/18 15:46:08;;;;;;;5.28;3.13;;;;;;;;;;5132686;27;20114;-46
2021/10/18 15:48:35;;;;;;;7.38;3.10;;;;;;;;;;5095115;27;21371;-46
2021/10/18 15:51:01;;;;;;;7.93;3.97;;;;;;;;;;5134434;27;20035;-47